Terminal Aerodrome Forecast
Issued by NWS Buffalo, NY

Home | Current Version | Previous Version | Text Only | Print | Product List | Glossary On
Versions: 1 2 3 4 5 6 7 8 9 10 11 12 13 14 15 16 17 18 19 20 21 22 23 24 25
000
FTUS41 KBUF 210500
TAFART
TAF
KART 210537Z 2106/2206 19015G22KT P6SM SCT050
     FM210900 19016G24KT P6SM SCT035
     FM211100 19014G21KT P6SM -SHRA BKN035
     FM211200 19013G19KT P6SM OVC035
     FM211400 21012KT 6SM -SHRA OVC035
     FM211800 25008KT 6SM -SHRA OVC035
     FM220100 31008KT 6SM -SHRA OVC035=

USA.gov is the U.S. government's official web portal to all federal, state and local government web resources and services.